Time;durP1;ratioP1;P1;durP2;ratioP2;P2;SDS_P1;SDS_P2;PMS_P1;PMS_P2;Temp;Humidity;BMP_temperature;BMP_pressure;BME280_temperature;BME280_humidity;BME280_pressure;Samples;Min_cycle;Max_cycle;Signal;HPM_P1;HPM_P2
2021/11/09 00:00:11;;;;;;;10.15;3.90;;;21.10;50.40;;;;;;5020259;28;20042;-61
2021/11/09 00:02:38;;;;;;;8.95;3.10;;;21.00;50.00;;;;;;5017192;28;20047;-62
2021/11/09 00:05:07;;;;;;;10.27;3.05;;;21.00;50.10;;;;;;5020683;28;20667;-62
2021/11/09 00:07:47;;;;;;;7.97;3.05;;;21.00;50.10;;;;;;5016678;28;20044;-62
2021/11/09 00:10:13;;;;;;;10.32;3.75;;;21.10;50.30;;;;;;5012464;28;20149;-61
2021/11/09 00:12:51;;;;;;;8.48;3.08;;;21.10;50.40;;;;;;5017318;28;20121;-62
2021/11/09 00:15:20;;;;;;;10.52;3.35;;;21.00;50.00;;;;;;5022946;28;20094;-62
2021/11/09 00:17:48;;;;;;;7.93;2.95;;;21.10;50.20;;;;;;5015462;28;20042;-61
2021/11/09 00:20:16;;;;;;;8.63;2.95;;;21.00;50.20;;;;;;5023614;28;20037;-62
2021/11/09 00:22:43;;;;;;;9.00;3.10;;;21.00;50.10;;;;;;5026178;28;20033;-62
2021/11/09 00:25:10;;;;;;;8.18;3.03;;;21.00;50.00;;;;;;5019614;28;20068;-62
2021/11/09 00:27:35;;;;;;;9.02;2.97;;;21.00;50.20;;;;;;5016846;28;20061;-61
2021/11/09 00:30:02;;;;;;;8.80;2.90;;;21.00;50.10;;;;;;5019200;28;20061;-62
2021/11/09 00:32:28;;;;;;;9.50;3.15;;;21.00;50.10;;;;;;5023574;28;20038;-62
2021/11/09 00:34:54;;;;;;;8.10;3.00;;;21.00;50.30;;;;;;5019364;28;20209;-62
2021/11/09 00:37:20;;;;;;;8.50;3.28;;;21.00;50.00;;;;;;5017394;28;20128;-62
2021/11/09 00:39:46;;;;;;;7.68;2.90;;;21.00;50.10;;;;;;5021920;28;20042;-61
2021/11/09 00:42:14;;;;;;;7.43;2.63;;;21.00;50.30;;;;;;5019608;28;20045;-62
2021/11/09 00:44:40;;;;;;;9.85;2.85;;;21.00;50.10;;;;;;5021445;28;20589;-61
2021/11/09 00:47:06;;;;;;;9.48;3.00;;;21.00;50.10;;;;;;5016331;28;20038;-62
2021/11/09 00:49:32;;;;;;;10.40;3.00;;;21.00;50.30;;;;;;5020893;28;20050;-62
2021/11/09 00:51:58;;;;;;;12.48;3.30;;;21.00;50.10;;;;;;5021866;28;20046;-62
2021/11/09 00:54:24;;;;;;;8.85;2.95;;;21.00;50.20;;;;;;5023451;28;20037;-62
2021/11/09 00:56:50;;;;;;;6.13;2.33;;;21.00;50.30;;;;;;5019832;28;20033;-62
2021/11/09 00:59:16;;;;;;;10.07;3.00;;;21.00;50.10;;;;;;5016482;28;20418;-62
2021/11/09 01:01:42;;;;;;;8.70;2.95;;;21.00;50.20;;;;;;5017074;28;20104;-61
2021/11/09 01:04:08;;;;;;;8.60;2.78;;;21.00;50.30;;;;;;5017028;28;20033;-61
2021/11/09 01:06:34;;;;;;;7.72;2.60;;;21.00;50.00;;;;;;5018570;28;20140;-62
2021/11/09 01:09:00;;;;;;;8.63;2.83;;;21.00;50.20;;;;;;5020463;28;20121;-61
2021/11/09 01:11:26;;;;;;;9.23;3.05;;;21.00;50.20;;;;;;5024922;28;20084;-62
2021/11/09 01:13:53;;;;;;;8.80;2.90;;;21.00;50.10;;;;;;5017905;28;20601;-62
2021/11/09 01:16:18;;;;;;;10.90;2.65;;;21.00;50.20;;;;;;5018895;28;20076;-62
2021/11/09 01:18:51;;;;;;;11.15;2.97;;;21.00;50.10;;;;;;5018855;28;20037;-62
2021/11/09 01:21:18;;;;;;;8.52;2.90;;;21.00;50.00;;;;;;5024534;28;20041;-62
2021/11/09 01:23:46;;;;;;;9.30;2.95;;;21.00;50.30;;;;;;5018916;28;20038;-62
2021/11/09 01:26:13;;;;;;;9.15;2.97;;;21.00;50.20;;;;;;5022046;28;20043;-61
2021/11/09 01:28:40;;;;;;;9.60;2.83;;;21.00;50.10;;;;;;5022430;28;20033;-62
2021/11/09 01:31:08;;;;;;;8.95;2.50;;;21.00;50.30;;;;;;5019477;28;20517;-61
2021/11/09 01:33:35;;;;;;;9.32;2.85;;;21.00;50.10;;;;;;5014574;28;20042;-62
2021/11/09 01:36:01;;;;;;;9.88;2.60;;;21.00;50.10;;;;;;5020158;28;20041;-62
2021/11/09 01:38:27;;;;;;;8.98;2.83;;;21.00;50.40;;;;;;5023076;28;20041;-61
2021/11/09 01:40:53;;;;;;;9.00;2.55;;;21.00;50.20;;;;;;5025863;28;20037;-62
2021/11/09 01:43:21;;;;;;;7.30;2.40;;;21.00;50.10;;;;;;5019703;28;20060;-61
2021/11/09 01:45:48;;;;;;;8.02;2.58;;;20.90;50.10;;;;;;5022017;28;20418;-61
2021/11/09 01:48:15;;;;;;;11.55;3.08;;;21.00;50.20;;;;;;5027021;28;20033;-62
2021/11/09 01:50:44;;;;;;;12.15;2.60;;;20.90;49.90;;;;;;5016407;28;20065;-61
2021/11/09 01:53:10;;;;;;;9.40;2.72;;;21.00;50.30;;;;;;5021656;28;20104;-62
2021/11/09 01:55:38;;;;;;;9.55;2.45;;;21.00;50.10;;;;;;5018756;28;20050;-61
2021/11/09 01:58:05;;;;;;;9.23;2.75;;;21.00;50.00;;;;;;5022529;28;20075;-62
2021/11/09 02:00:48;;;;;;;7.80;2.33;;;21.00;50.30;;;;;;5024994;28;20041;-62
2021/11/09 02:03:15;;;;;;;8.07;2.63;;;21.00;50.10;;;;;;5021730;28;20483;-61
2021/11/09 02:05:42;;;;;;;10.07;2.60;;;20.90;49.90;;;;;;5025375;28;20038;-62
2021/11/09 02:08:08;;;;;;;9.80;2.58;;;21.00;50.20;;;;;;5020238;28;20045;-62
2021/11/09 02:10:38;;;;;;;9.13;2.72;;;20.90;49.90;;;;;;5021719;28;20052;-61
2021/11/09 02:13:04;;;;;;;7.55;2.60;;;20.90;49.90;;;;;;5018758;28;20041;-62
2021/11/09 02:15:31;;;;;;;7.40;2.45;;;20.90;50.10;;;;;;5028909;28;20029;-61
2021/11/09 02:17:58;;;;;;;7.13;2.40;;;21.00;50.10;;;;;;5023020;28;20477;-61
2021/11/09 02:20:26;;;;;;;7.75;2.10;;;20.90;49.90;;;;;;5021785;28;20077;-60
2021/11/09 02:22:53;;;;;;;9.07;2.30;;;21.00;50.30;;;;;;5018950;28;20053;-62
2021/11/09 02:25:20;;;;;;;10.35;2.42;;;21.00;50.00;;;;;;5024051;28;20513;-62
2021/11/09 02:27:46;;;;;;;7.25;2.42;;;21.00;50.10;;;;;;5020047;28;20515;-61
2021/11/09 02:30:16;;;;;;;10.18;2.78;;;21.00;50.30;;;;;;5018563;28;20038;-60
2021/11/09 02:32:42;;;;;;;7.10;2.28;;;21.00;50.10;;;;;;5027665;28;20029;-61
2021/11/09 02:35:10;;;;;;;7.85;2.33;;;21.00;50.00;;;;;;5023903;28;20045;-62
2021/11/09 02:37:36;;;;;;;7.68;2.42;;;21.00;50.10;;;;;;5020758;28;20046;-61
2021/11/09 02:40:04;;;;;;;8.18;2.60;;;20.90;50.00;;;;;;5018012;28;20103;-62
2021/11/09 02:42:35;;;;;;;8.85;2.72;;;20.90;49.80;;;;;;5019323;28;20060;-62
2021/11/09 02:45:26;;;;;;;8.95;2.45;;;20.90;49.90;;;;;;5027402;28;20072;-62
2021/11/09 02:48:07;;;;;;;8.52;2.60;;;20.90;50.00;;;;;;5024986;28;20041;-62
2021/11/09 02:50:36;;;;;;;9.98;2.80;;;20.90;49.90;;;;;;5018850;28;20565;-62
2021/11/09 02:53:33;;;;;;;8.50;2.42;;;20.90;49.80;;;;;;5024530;28;20100;-62
2021/11/09 02:55:54;;;;;;;8.15;2.35;;;20.90;50.00;;;;;;5020342;28;20037;-61
2021/11/09 02:58:30;;;;;;;7.45;2.15;;;20.90;50.00;;;;;;5019705;28;20525;-62
2021/11/09 03:03:40;;;;;;;6.03;1.92;;;20.90;49.90;;;;;;5022144;28;20137;-62
2021/11/09 03:06:29;;;;;;;8.05;2.40;;;20.90;50.10;;;;;;5016209;28;20065;-62
2021/11/09 03:09:09;;;;;;;6.00;2.10;;;20.90;49.80;;;;;;5019189;28;20060;-62
2021/11/09 03:11:38;;;;;;;6.43;2.22;;;20.90;49.90;;;;;;5019652;28;20048;-62
2021/11/09 03:14:04;;;;;;;9.82;2.40;;;20.90;50.00;;;;;;5025433;28;20037;-62
2021/11/09 03:16:34;;;;;;;7.97;2.35;;;20.90;49.80;;;;;;5022894;28;20048;-62
2021/11/09 03:40:49;;;;;;;7.78;2.60;;;20.90;50.00;;;;;;5024911;28;20042;-62
2021/11/09 03:46:00;;;;;;;7.57;2.60;;;20.90;49.70;;;;;;5018686;28;20038;-62
2021/11/09 03:48:25;;;;;;;9.88;2.20;;;20.90;49.90;;;;;;5018556;28;20044;-62
2021/11/09 03:50:52;;;;;;;9.70;2.60;;;20.90;50.00;;;;;;5021032;28;20418;-62
2021/11/09 03:53:22;;;;;;;8.45;2.95;;;20.90;49.90;;;;;;5021307;28;20050;-62
2021/11/09 04:00:50;;;;;;;7.53;2.45;;;20.90;50.00;;;;;;5017622;28;20069;-62
2021/11/09 04:05:48;;;;;;;8.93;2.50;;;20.90;49.80;;;;;;5018325;28;20037;-62
2021/11/09 04:10:55;;;;;;;7.13;2.20;;;20.90;49.80;;;;;;5022002;28;20136;-62
2021/11/09 04:21:05;;;;;;;7.53;2.17;;;20.80;49.50;;;;;;5017617;28;20104;-62
2021/11/09 04:26:44;;;;;;;7.80;2.13;;;20.90;49.80;;;;;;5017652;28;20120;-62
2021/11/09 04:29:22;;;;;;;9.32;2.40;;;20.90;49.80;;;;;;5019365;28;20030;-62
2021/11/09 04:35:06;;;;;;;6.80;2.00;;;21.00;49.70;;;;;;5018458;28;20042;-62
2021/11/09 05:10:21;;;;;;;7.82;2.30;;;21.40;49.60;;;;;;5016441;28;20034;-62
2021/11/09 05:12:47;;;;;;;6.57;2.15;;;21.40;49.50;;;;;;5020707;28;20036;-62
2021/11/09 05:15:13;;;;;;;6.78;2.25;;;21.40;49.50;;;;;;5016347;28;20038;-61
2021/11/09 05:17:39;;;;;;;6.68;1.95;;;21.40;49.50;;;;;;5021456;28;20037;-61
2021/11/09 05:20:05;;;;;;;7.32;2.17;;;21.50;49.70;;;;;;5021505;28;20040;-62
2021/11/09 05:22:30;;;;;;;6.53;2.08;;;21.50;49.60;;;;;;5019880;28;20042;-62
2021/11/09 05:24:57;;;;;;;7.32;2.03;;;21.50;49.50;;;;;;5024241;28;20045;-62
2021/11/09 05:27:26;;;;;;;6.47;2.10;;;21.40;49.30;;;;;;5022589;28;20056;-62
2021/11/09 05:29:52;;;;;;;7.30;2.08;;;21.50;49.50;;;;;;5025011;28;20128;-62
2021/11/09 05:32:17;;;;;;;8.25;2.10;;;21.50;49.50;;;;;;5019063;28;20140;-62
2021/11/09 05:34:43;;;;;;;7.88;2.22;;;21.50;49.50;;;;;;5024405;28;20042;-62
2021/11/09 05:37:11;;;;;;;7.93;2.30;;;21.50;49.50;;;;;;5024044;28;20033;-62
2021/11/09 05:42:09;;;;;;;6.97;1.88;;;21.50;49.50;;;;;;5019350;28;20127;-62
2021/11/09 05:44:35;;;;;;;6.22;1.90;;;21.50;49.40;;;;;;5022669;28;20048;-62
2021/11/09 05:47:00;;;;;;;8.50;2.40;;;21.50;49.40;;;;;;5024732;28;20042;-62
2021/11/09 05:49:27;;;;;;;6.00;2.15;;;21.50;49.40;;;;;;5019215;28;20042;-62
2021/11/09 05:51:53;;;;;;;6.78;1.90;;;21.50;49.40;;;;;;5020291;28;20593;-62
2021/11/09 05:54:19;;;;;;;7.78;2.20;;;21.50;49.40;;;;;;5021793;28;20097;-62
2021/11/09 05:56:44;;;;;;;7.35;2.20;;;21.50;49.30;;;;;;5024183;28;20498;-62
2021/11/09 05:59:10;;;;;;;6.22;1.83;;;21.50;49.60;;;;;;5019567;28;20037;-62
2021/11/09 06:01:36;;;;;;;5.72;1.80;;;21.50;49.70;;;;;;5020267;28;20033;-62
2021/11/09 06:04:02;;;;;;;10.02;2.10;;;21.50;50.20;;;;;;5023740;28;20487;-62
2021/11/09 06:06:28;;;;;;;7.43;2.13;;;21.50;50.20;;;;;;5022844;28;20118;-63
2021/11/09 06:08:53;;;;;;;6.72;2.00;;;21.50;50.40;;;;;;5022396;28;20045;-62
2021/11/09 06:11:19;;;;;;;9.57;2.20;;;21.40;50.20;;;;;;5020816;28;20049;-62
2021/11/09 06:13:45;;;;;;;6.72;2.10;;;21.40;50.40;;;;;;5022179;28;20049;-62
2021/11/09 06:16:11;;;;;;;8.48;1.92;;;21.40;50.20;;;;;;5021781;28;20050;-62
2021/11/09 06:18:37;;;;;;;7.35;2.15;;;21.40;50.30;;;;;;5018907;28;20042;-62
2021/11/09 06:21:03;;;;;;;10.73;2.40;;;21.40;50.40;;;;;;5021991;28;20718;-63
2021/11/09 06:23:28;;;;;;;9.65;2.47;;;21.40;50.50;;;;;;5022640;28;20050;-63
2021/11/09 06:25:54;;;;;;;9.40;2.08;;;21.40;50.20;;;;;;5019920;28;20593;-62
2021/11/09 06:28:21;;;;;;;8.85;2.47;;;21.40;50.10;;;;;;5019470;28;20112;-62
2021/11/09 06:30:48;;;;;;;8.02;2.30;;;21.40;50.00;;;;;;5018364;28;20041;-62
2021/11/09 06:33:16;;;;;;;6.03;2.03;;;21.40;49.80;;;;;;5023466;28;20040;-63
2021/11/09 06:35:43;;;;;;;5.82;1.98;;;21.40;49.60;;;;;;5029093;28;20050;-62
2021/11/09 06:38:09;;;;;;;7.25;2.50;;;21.40;49.50;;;;;;5024304;28;20029;-63
2021/11/09 06:40:37;;;;;;;7.25;2.50;;;21.40;49.40;;;;;;5019714;28;20053;-62
2021/11/09 06:43:06;;;;;;;8.13;2.33;;;21.40;49.20;;;;;;5021145;28;20030;-62
2021/11/09 06:45:33;;;;;;;7.07;2.05;;;21.40;49.10;;;;;;5020965;28;20045;-62
2021/11/09 06:47:58;;;;;;;7.18;2.30;;;21.40;49.10;;;;;;5021074;28;20038;-62
2021/11/09 06:50:25;;;;;;;7.45;2.30;;;21.40;49.10;;;;;;5026330;28;20044;-62
2021/11/09 06:52:51;;;;;;;7.40;2.10;;;21.40;49.20;;;;;;5027940;28;20036;-63
2021/11/09 06:55:16;;;;;;;8.00;2.40;;;21.40;49.10;;;;;;5020790;28;20033;-62
2021/11/09 06:57:43;;;;;;;6.93;2.08;;;21.40;49.00;;;;;;5022011;28;20510;-62
2021/11/09 07:00:14;;;;;;;7.28;2.55;;;21.40;48.90;;;;;;5017595;28;20644;-61
2021/11/09 07:02:40;;;;;;;8.10;2.35;;;21.40;48.80;;;;;;5019461;28;20060;-61
2021/11/09 07:05:07;;;;;;;6.68;2.22;;;21.40;48.90;;;;;;5022426;28;20046;-62
2021/11/09 07:07:33;;;;;;;8.43;2.53;;;21.40;48.70;;;;;;5017761;28;20056;-62
2021/11/09 07:09:58;;;;;;;7.72;2.42;;;21.40;48.70;;;;;;5021251;28;20042;-62
2021/11/09 07:12:24;;;;;;;9.18;2.30;;;21.40;48.60;;;;;;5024023;28;20056;-61
2021/11/09 07:14:51;;;;;;;8.82;2.38;;;21.40;48.50;;;;;;5019647;28;20046;-62
2021/11/09 07:17:17;;;;;;;10.73;2.70;;;21.40;48.60;;;;;;5019162;28;20372;-62
2021/11/09 07:19:49;;;;;;;7.78;2.40;;;21.40;48.40;;;;;;5019801;28;20586;-62
2021/11/09 07:22:15;;;;;;;9.68;2.40;;;21.40;48.50;;;;;;5020777;28;20042;-62
2021/11/09 07:24:42;;;;;;;9.57;2.55;;;21.30;48.30;;;;;;5020162;28;20068;-62
2021/11/09 07:27:08;;;;;;;7.05;2.30;;;21.40;48.30;;;;;;5018368;28;20041;-62
2021/11/09 07:29:34;;;;;;;6.63;2.25;;;21.30;48.10;;;;;;5022131;28;20033;-62
2021/11/09 07:32:00;;;;;;;7.65;2.33;;;21.30;48.10;;;;;;5021996;28;20808;-62
2021/11/09 07:34:26;;;;;;;6.20;2.05;;;21.30;48.00;;;;;;5019143;28;20170;-61
2021/11/09 07:36:52;;;;;;;7.70;2.40;;;21.30;48.00;;;;;;5017472;28;20095;-62
2021/11/09 07:39:20;;;;;;;9.13;2.33;;;21.30;48.00;;;;;;5019205;28;20756;-61
2021/11/09 07:41:47;;;;;;;8.05;2.63;;;21.30;47.90;;;;;;5023437;28;20057;-62
2021/11/09 07:44:13;;;;;;;7.13;2.10;;;21.30;47.90;;;;;;5020347;28;20041;-61
2021/11/09 07:46:39;;;;;;;6.68;2.42;;;21.30;47.90;;;;;;5022379;28;20173;-62
2021/11/09 07:49:05;;;;;;;7.00;2.42;;;21.30;47.80;;;;;;5019638;28;20042;-62
2021/11/09 07:51:32;;;;;;;9.35;2.45;;;21.30;47.90;;;;;;5019786;28;20037;-62
2021/11/09 07:53:59;;;;;;;7.22;2.00;;;21.30;47.80;;;;;;5016318;28;20199;-62
2021/11/09 07:56:30;;;;;;;7.32;2.05;;;21.30;48.60;;;;;;5018047;28;20045;-62
2021/11/09 08:01:44;;;;;;;6.07;2.30;;;21.20;47.60;;;;;;5025563;28;20049;-61
2021/11/09 08:04:17;;;;;;;6.22;1.92;;;21.20;47.70;;;;;;5017614;28;20068;-62
2021/11/09 08:06:55;;;;;;;6.68;2.03;;;21.20;47.70;;;;;;5019301;28;20042;-62
2021/11/09 08:09:28;;;;;;;5.90;2.00;;;21.20;47.60;;;;;;5020483;28;20506;-62
2021/11/09 08:11:59;;;;;;;7.53;2.20;;;21.20;47.60;;;;;;5021592;28;20041;-62
2021/11/09 08:14:25;;;;;;;5.53;1.75;;;21.10;47.50;;;;;;5016424;28;20034;-62
2021/11/09 08:16:51;;;;;;;6.95;2.08;;;21.10;47.40;;;;;;5020705;28;20042;-62
2021/11/09 08:19:18;;;;;;;9.35;2.50;;;21.20;47.70;;;;;;5020606;28;20057;-61
2021/11/09 08:21:45;;;;;;;7.57;1.90;;;21.10;47.50;;;;;;5021366;28;20048;-62
2021/11/09 08:24:14;;;;;;;6.57;1.92;;;21.10;47.50;;;;;;5016835;28;20693;-61
2021/11/09 08:26:40;;;;;;;5.68;1.73;;;21.10;47.50;;;;;;5021302;28;20033;-62
2021/11/09 08:29:06;;;;;;;5.28;1.83;;;21.10;47.60;;;;;;5020308;28;20143;-62
2021/11/09 08:31:37;;;;;;;5.22;1.70;;;21.10;47.40;;;;;;5021878;28;20415;-61
2021/11/09 08:34:05;;;;;;;5.32;1.67;;;21.10;47.50;;;;;;5018705;28;20034;-62
2021/11/09 08:36:31;;;;;;;7.60;2.05;;;21.10;47.50;;;;;;5018406;28;20119;-61
2021/11/09 08:39:04;;;;;;;6.03;1.70;;;21.10;47.50;;;;;;5019862;28;20127;-61
2021/11/09 08:41:39;;;;;;;5.88;1.77;;;21.10;47.50;;;;;;5020339;28;20450;-60
2021/11/09 08:44:07;;;;;;;5.68;1.90;;;21.10;47.40;;;;;;5017649;28;20513;-62
2021/11/09 08:46:40;;;;;;;6.38;1.75;;;21.10;47.40;;;;;;5038257;28;20046;-62
2021/11/09 08:49:08;;;;;;;6.38;2.03;;;21.00;47.90;;;;;;5022084;28;20045;-62
2021/11/09 08:51:34;;;;;;;5.70;1.88;;;21.00;47.20;;;;;;5016979;28;20050;-62
2021/11/09 08:54:21;;;;;;;6.50;1.90;;;21.00;47.20;;;;;;5018308;28;20042;-61
2021/11/09 09:05:05;;;;;;;5.68;1.73;;;21.10;47.30;;;;;;5022449;28;20041;-62
2021/11/09 09:07:34;;;;;;;5.63;1.65;;;21.10;47.30;;;;;;5024139;28;20530;-62
2021/11/09 09:10:00;;;;;;;7.18;1.88;;;21.10;47.30;;;;;;5016211;28;20048;-62
2021/11/09 09:12:27;;;;;;;7.40;2.05;;;21.10;47.30;;;;;;5018191;28;20033;-62
2021/11/09 09:14:54;;;;;;;6.43;1.90;;;21.10;47.20;;;;;;5022320;28;20042;-62
2021/11/09 09:17:25;;;;;;;6.22;1.50;;;21.10;47.30;;;;;;5021306;28;20075;-62
2021/11/09 09:20:00;;;;;;;6.78;1.70;;;21.10;47.20;;;;;;5016712;28;20038;-61
2021/11/09 09:22:38;;;;;;;5.30;1.58;;;21.10;47.10;;;;;;5019198;28;20042;-61
2021/11/09 09:55:01;;;;;;;4.93;1.42;;;21.20;47.00;;;;;;5020809;28;20069;-62
2021/11/09 09:57:29;;;;;;;5.22;1.45;;;21.20;47.00;;;;;;5019777;28;20041;-62
2021/11/09 09:59:56;;;;;;;7.47;1.83;;;21.20;46.80;;;;;;5023391;28;20566;-62
2021/11/09 10:02:25;;;;;;;5.68;1.60;;;21.20;46.90;;;;;;5024113;28;20053;-62
2021/11/09 10:05:07;;;;;;;5.45;1.90;;;21.20;46.80;;;;;;5024817;28;20503;-62
2021/11/09 10:07:47;;;;;;;6.03;1.63;;;21.20;46.90;;;;;;5018817;28;20119;-62
2021/11/09 10:10:17;;;;;;;4.93;1.42;;;21.20;47.00;;;;;;5016927;28;20473;-61
2021/11/09 10:12:46;;;;;;;5.40;1.80;;;21.20;46.80;;;;;;5024676;28;20044;-61
2021/11/09 10:15:20;;;;;;;5.25;1.63;;;21.20;46.90;;;;;;5021548;28;20152;-61
2021/11/09 10:17:53;;;;;;;6.13;1.48;;;21.20;46.90;;;;;;5019996;28;20135;-62
2021/11/09 10:20:34;;;;;;;5.25;1.73;;;21.10;46.70;;;;;;5022295;28;20049;-62
2021/11/09 10:23:06;;;;;;;5.53;1.80;;;21.20;47.00;;;;;;5021583;28;20128;-62
2021/11/09 10:25:34;;;;;;;5.45;1.80;;;21.10;46.80;;;;;;5023520;28;20060;-62
2021/11/09 10:28:04;;;;;;;6.85;1.80;;;21.10;46.70;;;;;;5024025;28;20037;-62
2021/11/09 10:30:35;;;;;;;5.53;1.92;;;21.10;46.70;;;;;;5023598;28;20087;-61
2021/11/09 10:33:01;;;;;;;6.68;2.03;;;21.10;46.70;;;;;;5023337;28;20052;-62
2021/11/09 10:35:27;;;;;;;6.35;1.83;;;21.10;46.70;;;;;;5025679;28;20038;-62
2021/11/09 10:37:55;;;;;;;6.18;2.03;;;21.10;46.80;;;;;;5022808;28;20038;-61
2021/11/09 10:40:26;;;;;;;5.47;2.00;;;21.10;46.80;;;;;;5023829;28;21300;-62
2021/11/09 10:42:55;;;;;;;6.75;2.08;;;21.10;46.70;;;;;;5024011;28;20076;-61
2021/11/09 10:45:27;;;;;;;6.10;1.90;;;21.10;46.80;;;;;;5021517;28;20145;-62
2021/11/09 10:48:00;;;;;;;7.22;2.03;;;21.10;46.80;;;;;;5023405;28;20037;-63
2021/11/09 10:50:29;;;;;;;6.78;1.92;;;21.10;46.70;;;;;;5021229;28;20045;-62
2021/11/09 10:53:10;;;;;;;6.40;2.00;;;21.10;46.70;;;;;;5021501;28;20706;-61
2021/11/09 11:06:22;;;;;;;6.78;2.65;;;21.00;46.60;;;;;;5018240;28;20038;-62
2021/11/09 11:09:06;;;;;;;6.13;2.40;;;21.10;46.90;;;;;;5022910;28;20038;-61
2021/11/09 11:11:44;;;;;;;5.53;2.22;;;21.10;46.70;;;;;;5019913;28;20049;-62
2021/11/09 11:14:21;;;;;;;8.30;2.53;;;21.10;46.80;;;;;;5018742;28;20495;-62
2021/11/09 11:17:00;;;;;;;6.97;2.30;;;21.10;46.70;;;;;;5022724;28;20046;-62
2021/11/09 11:19:28;;;;;;;6.68;2.20;;;21.10;46.80;;;;;;5017874;28;20056;-62
2021/11/09 11:21:56;;;;;;;7.95;2.35;;;21.10;46.70;;;;;;5020845;28;20109;-62
2021/11/09 11:24:22;;;;;;;6.65;2.30;;;21.10;46.70;;;;;;5017925;28;20159;-61
2021/11/09 11:26:49;;;;;;;7.15;2.00;;;21.10;46.80;;;;;;5021068;28;20514;-62
2021/11/09 11:29:21;;;;;;;5.25;1.90;;;21.10;46.80;;;;;;5023732;28;20037;-62
2021/11/09 11:31:48;;;;;;;5.82;2.20;;;21.10;46.90;;;;;;5026680;28;20048;-62
2021/11/09 11:34:19;;;;;;;6.32;2.15;;;21.20;47.00;;;;;;5017938;28;20498;-62
2021/11/09 11:36:46;;;;;;;6.68;2.20;;;21.10;46.80;;;;;;5016808;28;20046;-62
2021/11/09 11:39:14;;;;;;;6.70;2.00;;;21.20;47.00;;;;;;5018526;28;20511;-62
2021/11/09 11:41:44;;;;;;;5.95;1.80;;;21.20;47.00;;;;;;5017368;28;20041;-62
2021/11/09 11:44:13;;;;;;;5.50;2.00;;;21.20;47.00;;;;;;5019836;28;20037;-61
2021/11/09 11:46:38;;;;;;;5.65;1.88;;;21.20;47.00;;;;;;5024130;28;20577;-61
2021/11/09 11:49:16;;;;;;;5.43;1.92;;;21.20;46.90;;;;;;5021083;28;20083;-61
2021/11/09 11:51:44;;;;;;;4.95;1.92;;;21.20;47.00;;;;;;5020738;28;20792;-62
2021/11/09 11:54:17;;;;;;;6.30;2.00;;;21.20;46.90;;;;;;5017692;28;20087;-62
2021/11/09 11:56:45;;;;;;;4.88;1.70;;;21.20;46.80;;;;;;5022267;28;20048;-61
2021/11/09 11:59:21;;;;;;;4.20;1.50;;;21.30;46.90;;;;;;5024359;28;20576;-61
2021/11/09 12:01:48;;;;;;;6.25;1.80;;;21.20;46.70;;;;;;5018631;28;20041;-62
2021/11/09 12:04:43;;;;;;;5.57;1.80;;;21.20;46.60;;;;;;5019307;28;20908;-62
2021/11/09 12:07:15;;;;;;;5.97;1.90;;;21.20;46.60;;;;;;5020189;28;20128;-62
2021/11/09 12:09:42;;;;;;;5.53;1.75;;;21.20;47.30;;;;;;5018306;28;20047;-62
2021/11/09 12:12:17;;;;;;;7.13;1.77;;;21.20;46.70;;;;;;5016897;28;20041;-62
2021/11/09 12:14:55;;;;;;;5.57;1.67;;;21.20;46.60;;;;;;5021108;28;20054;-62
2021/11/09 12:17:44;;;;;;;5.43;1.60;;;21.20;46.50;;;;;;5025019;28;20448;-61
2021/11/09 12:20:42;;;;;;;6.60;1.67;;;21.20;46.50;;;;;;5018437;28;20129;-62
2021/11/09 12:23:17;;;;;;;4.82;1.50;;;21.20;46.30;;;;;;5018617;28;20041;-62
2021/11/09 12:25:43;;;;;;;5.03;1.58;;;21.20;46.50;;;;;;5020279;28;20095;-62
2021/11/09 12:28:13;;;;;;;5.40;1.80;;;21.20;46.50;;;;;;5020421;28;20510;-62
2021/11/09 12:30:42;;;;;;;5.05;1.60;;;21.20;46.50;;;;;;5018614;28;20438;-61
2021/11/09 12:33:30;;;;;;;5.05;1.60;;;21.20;47.00;;;;;;5018113;28;20532;-62
2021/11/09 12:36:02;;;;;;;4.65;1.50;;;21.20;46.50;;;;;;5028744;28;20044;-62
2021/11/09 12:38:31;;;;;;;6.25;2.00;;;21.10;46.30;;;;;;5020660;28;20036;-62
2021/11/09 12:41:00;;;;;;;6.25;1.77;;;21.10;46.30;;;;;;5022003;28;20069;-62
2021/11/09 12:43:44;;;;;;;5.00;1.38;;;21.10;46.30;;;;;;5020350;28;20096;-62
2021/11/09 12:46:26;;;;;;;4.40;1.30;;;21.10;46.40;;;;;;5019278;28;20037;-63
2021/11/09 12:49:00;;;;;;;5.40;1.50;;;21.10;46.40;;;;;;5019356;28;20255;-62
2021/11/09 12:51:29;;;;;;;5.53;1.45;;;21.10;46.20;;;;;;5019361;28;20037;-62
2021/11/09 12:53:59;;;;;;;5.88;1.42;;;21.10;46.40;;;;;;5029595;28;20085;-62
2021/11/09 12:56:36;;;;;;;5.25;1.40;;;21.10;46.30;;;;;;5019106;28;20616;-62
2021/11/09 12:59:13;;;;;;;5.30;1.38;;;21.10;46.30;;;;;;5019805;28;20045;-62
2021/11/09 13:04:29;;;;;;;7.18;1.70;;;21.10;46.30;;;;;;5021446;28;20038;-62
2021/11/09 13:09:51;;;;;;;4.40;1.30;;;21.10;46.30;;;;;;5017725;28;20033;-61
2021/11/09 13:12:25;;;;;;;5.35;1.35;;;21.10;46.30;;;;;;5023986;28;20760;-62
2021/11/09 13:14:57;;;;;;;7.13;1.33;;;21.00;46.10;;;;;;5023395;28;20537;-62
2021/11/09 13:17:31;;;;;;;5.18;1.40;;;21.10;46.20;;;;;;5019333;28;20041;-62
2021/11/09 13:20:00;;;;;;;5.47;1.50;;;21.00;46.10;;;;;;5018828;28;20103;-62
2021/11/09 13:22:29;;;;;;;4.13;1.27;;;21.00;46.10;;;;;;5020384;28;20600;-62
2021/11/09 13:25:00;;;;;;;3.72;1.17;;;21.00;46.20;;;;;;5024991;28;20041;-62
2021/11/09 13:27:38;;;;;;;8.80;1.90;;;21.00;46.20;;;;;;5021048;28;20049;-61
2021/11/09 13:30:16;;;;;;;4.35;1.33;;;21.00;46.10;;;;;;5018743;28;20054;-62
2021/11/09 13:32:44;;;;;;;4.78;1.35;;;21.10;46.20;;;;;;5018955;28;20126;-62
2021/11/09 13:35:34;;;;;;;4.45;1.30;;;21.00;46.60;;;;;;5021740;28;20052;-63
2021/11/09 13:38:15;;;;;;;5.85;1.52;;;21.00;46.10;;;;;;5023126;28;20037;-62
2021/11/09 13:40:46;;;;;;;6.00;1.40;;;21.10;46.20;;;;;;5020408;28;20048;-62
2021/11/09 13:43:14;;;;;;;5.78;1.85;;;21.00;46.00;;;;;;5020785;28;20557;-62
2021/11/09 13:45:40;;;;;;;5.05;1.38;;;21.00;46.20;;;;;;5022385;28;20096;-60
2021/11/09 13:48:18;;;;;;;4.55;1.30;;;21.00;46.10;;;;;;5022000;28;20470;-62
2021/11/09 13:50:46;;;;;;;4.28;1.27;;;21.00;46.10;;;;;;5023537;28;20498;-62
2021/11/09 13:53:12;;;;;;;4.18;1.10;;;21.00;46.00;;;;;;5027858;28;20053;-62
2021/11/09 13:55:41;;;;;;;5.07;1.27;;;21.00;46.00;;;;;;5022303;28;20033;-62
2021/11/09 13:58:10;;;;;;;5.00;1.40;;;21.00;46.00;;;;;;5019705;28;20124;-62
2021/11/09 14:01:00;;;;;;;4.65;1.30;;;21.00;46.10;;;;;;5024077;28;20072;-61
2021/11/09 14:09:06;;;;;;;5.20;1.50;;;21.00;46.10;;;;;;5021630;28;20598;-61
2021/11/09 14:16:56;;;;;;;4.53;1.45;;;21.00;46.00;;;;;;5021443;28;20037;-62
2021/11/09 14:19:31;;;;;;;4.78;1.42;;;21.00;45.90;;;;;;5024247;28;20049;-61
2021/11/09 14:21:58;;;;;;;5.28;1.50;;;21.00;46.00;;;;;;5024074;28;20040;-62
2021/11/09 14:24:27;;;;;;;6.68;1.42;;;21.00;46.00;;;;;;5021674;28;20044;-62
2021/11/09 14:27:12;;;;;;;6.72;1.50;;;21.00;46.00;;;;;;5023245;28;20456;-62
2021/11/09 14:29:51;;;;;;;4.60;1.13;;;21.00;45.90;;;;;;5020163;28;20092;-63
2021/11/09 14:32:24;;;;;;;4.68;1.10;;;21.00;45.90;;;;;;5018997;28;20125;-62
2021/11/09 14:35:07;;;;;;;4.75;1.20;;;21.00;46.00;;;;;;5016491;28;20711;-62
2021/11/09 14:38:09;;;;;;;4.25;1.38;;;21.00;46.60;;;;;;5022308;28;20057;-63
2021/11/09 14:40:40;;;;;;;5.40;1.40;;;21.00;46.00;;;;;;5020458;28;20070;-63
2021/11/09 14:43:22;;;;;;;4.20;1.20;;;21.00;46.00;;;;;;5021832;28;20041;-62
2021/11/09 14:45:58;;;;;;;4.95;1.40;;;21.00;46.00;;;;;;5020824;28;20037;-62
2021/11/09 14:48:49;;;;;;;4.40;1.00;;;21.10;46.20;;;;;;5018256;28;20490;-62
2021/11/09 14:51:20;;;;;;;5.80;1.42;;;21.10;46.20;;;;;;5022845;28;20509;-63
2021/11/09 14:56:26;;;;;;;4.55;1.30;;;21.10;46.20;;;;;;5021557;28;20046;-62
2021/11/09 14:58:53;;;;;;;4.78;1.00;;;21.10;46.20;;;;;;5023466;28;20037;-62
2021/11/09 15:01:39;;;;;;;4.50;1.33;;;21.10;46.20;;;;;;5022267;28;20038;-62
2021/11/09 15:04:11;;;;;;;4.63;1.20;;;21.10;46.20;;;;;;5017450;28;20038;-62
2021/11/09 15:25:42;;;;;;;4.10;1.10;;;21.20;46.30;;;;;;5012568;28;20041;-62
2021/11/09 15:28:28;;;;;;;5.10;1.13;;;21.20;46.20;;;;;;5019245;28;20059;-61
2021/11/09 15:38:34;;;;;;;3.70;0.90;;;21.20;46.10;;;;;;5016969;28;20923;-62
2021/11/09 15:41:00;;;;;;;3.90;1.02;;;21.20;46.10;;;;;;5022230;28;20056;-62
2021/11/09 15:43:25;;;;;;;5.15;1.20;;;21.20;46.00;;;;;;5017216;28;20041;-62
2021/11/09 15:45:54;;;;;;;4.63;1.20;;;21.20;45.90;;;;;;5020231;28;20046;-63
2021/11/09 15:48:19;;;;;;;5.28;1.45;;;21.20;45.80;;;;;;5022791;28;20041;-62
2021/11/09 15:50:45;;;;;;;5.10;1.38;;;21.20;45.80;;;;;;5032252;28;20065;-61
2021/11/09 15:53:11;;;;;;;4.05;1.10;;;21.20;45.60;;;;;;5020330;28;20124;-62
2021/11/09 15:55:38;;;;;;;5.50;1.52;;;21.20;45.70;;;;;;5018412;28;20657;-63
2021/11/09 15:58:04;;;;;;;5.80;1.30;;;21.20;45.50;;;;;;5015910;28;20029;-62
2021/11/09 16:00:30;;;;;;;4.78;1.58;;;21.20;45.70;;;;;;5018739;28;20399;-62
2021/11/09 16:02:56;;;;;;;4.78;1.30;;;21.10;45.40;;;;;;5020504;28;20045;-62